createdAt,value
2022-09-30T00:00:30.491Z,97899.50
2022-09-30T00:01:52.253Z,97899.32
2022-09-30T00:02:54.004Z,97896.92
2022-09-30T00:03:57.541Z,97894.77
2022-09-30T00:04:59.358Z,97894.39
2022-09-30T00:06:08.200Z,97896.76
2022-09-30T00:07:10.761Z,97897.58
2022-09-30T00:08:12.494Z,97900.16
2022-09-30T00:09:15.330Z,97897.58
2022-09-30T00:10:17.348Z,97900.84
2022-09-30T00:11:28.957Z,97899.86
2022-09-30T00:12:30.985Z,97894.42
2022-09-30T00:13:35.834Z,97891.39
2022-09-30T00:14:37.889Z,97887.70
2022-09-30T00:15:40.005Z,97889.21
2022-09-30T00:16:42.325Z,97887.71
2022-09-30T00:17:44.082Z,97886.86
2022-09-30T00:18:45.819Z,97887.98
2022-09-30T00:19:47.615Z,97891.11
2022-09-30T00:20:49.368Z,97891.91
2022-09-30T00:21:51.135Z,97896.75
2022-09-30T00:22:52.827Z,97897.77
2022-09-30T00:23:54.930Z,97899.00
2022-09-30T00:24:56.568Z,97899.48
2022-09-30T00:26:04.150Z,97897.16
2022-09-30T00:27:05.924Z,97897.42
2022-09-30T00:28:08.110Z,97894.79
2022-09-30T00:29:11.036Z,97898.83
2022-09-30T00:30:12.715Z,97895.92
2022-09-30T00:31:17.975Z,97893.99
2022-09-30T00:32:19.716Z,97895.06
2022-09-30T00:33:21.518Z,97894.30
2022-09-30T00:34:23.157Z,97894.98
2022-09-30T00:35:25.401Z,97893.27
2022-09-30T00:36:27.028Z,97893.88
2022-09-30T00:37:28.695Z,97894.44
2022-09-30T00:38:31.377Z,97893.98
2022-09-30T00:39:33.021Z,97889.63
2022-09-30T00:40:34.742Z,97890.83
2022-09-30T00:41:37.627Z,97893.13
2022-09-30T00:42:42.419Z,97892.44
2022-09-30T00:43:53.524Z,97887.30
2022-09-30T00:45:04.717Z,97886.60
2022-09-30T00:46:21.369Z,97886.96
2022-09-30T00:47:32.123Z,97887.71
2022-09-30T00:48:38.992Z,97886.98
2022-09-30T00:49:40.867Z,97884.77
2022-09-30T00:50:47.242Z,97881.33
2022-09-30T00:51:55.965Z,97881.91
2022-09-30T00:53:09.889Z,97888.92
2022-09-30T00:54:21.754Z,97888.50
2022-09-30T00:55:34.284Z,97886.48
2022-09-30T00:56:49.800Z,97886.11
2022-09-30T00:57:51.971Z,97887.35
2022-09-30T00:59:07.532Z,97889.44
2022-09-30T01:00:09.675Z,97894.04
2022-09-30T01:01:11.761Z,97897.15
2022-09-30T01:02:14.568Z,97898.06
2022-09-30T01:03:18.396Z,97899.48
2022-09-30T01:04:28.758Z,97899.23
2022-09-30T01:05:33.264Z,97898.30
2022-09-30T01:06:35.150Z,97897.48
2022-09-30T01:07:37.689Z,97897.38
2022-09-30T01:08:41.094Z,97898.30
2022-09-30T01:09:44.753Z,97897.83
2022-09-30T01:10:46.557Z,97898.13
2022-09-30T01:11:49.022Z,97897.92
2022-09-30T01:12:51.230Z,97896.54
2022-09-30T01:13:57.995Z,97894.50
2022-09-30T01:15:02.242Z,97897.48
2022-09-30T01:16:19.463Z,97896.44
2022-09-30T01:17:47.022Z,97898.80
2022-09-30T01:19:41.517Z,97896.59
2022-09-30T01:21:02.535Z,97899.11
2022-09-30T01:22:22.544Z,97900.77
2022-09-30T01:24:05.377Z,97902.36
2022-09-30T01:25:25.297Z,97910.17
2022-09-30T01:26:29.661Z,97910.15
2022-09-30T01:28:03.227Z,97912.43
2022-09-30T01:29:28.984Z,97915.55
2022-09-30T01:30:54.543Z,97919.31
2022-09-30T01:32:14.645Z,97919.70
2022-09-30T01:33:45.485Z,97921.41
2022-09-30T01:35:20.796Z,97922.09
2022-09-30T01:36:43.287Z,97925.80
2022-09-30T01:38:12.918Z,97929.30
2022-09-30T01:39:38.551Z,97930.02
2022-09-30T01:40:47.101Z,97930.92
2022-09-30T01:42:12.805Z,97932.67
2022-09-30T01:43:32.131Z,97935.22
2022-09-30T01:45:03.150Z,97932.04
2022-09-30T01:46:19.639Z,97933.14
2022-09-30T01:47:27.341Z,97932.79
2022-09-30T01:48:44.395Z,97932.99
2022-09-30T01:49:55.687Z,97936.31
2022-09-30T01:51:11.657Z,97939.83
2022-09-30T01:52:28.228Z,97941.38
2022-09-30T01:53:41.982Z,97939.11
2022-09-30T01:55:01.884Z,97941.40
2022-09-30T01:56:13.143Z,97941.44
2022-09-30T01:57:57.350Z,97943.73
2022-09-30T01:59:07.892Z,97945.31
2022-09-30T02:00:13.290Z,97941.46
2022-09-30T02:01:25.423Z,97946.14
2022-09-30T02:02:32.101Z,97947.80
2022-09-30T02:03:43.283Z,97951.63
2022-09-30T02:04:59.220Z,97954.06
2022-09-30T02:06:07.439Z,97959.79
2022-09-30T02:07:25.102Z,97960.14
2022-09-30T02:08:32.159Z,97962.05
2022-09-30T02:09:40.994Z,97965.43
2022-09-30T02:10:53.208Z,97963.69
2022-09-30T02:12:01.416Z,97968.13
2022-09-30T02:13:35.777Z,97970.83
2022-09-30T02:14:43.876Z,97971.73
2022-09-30T02:16:12.916Z,97971.60
2022-09-30T02:17:28.977Z,97970.79
2022-09-30T02:18:43.446Z,97969.77
2022-09-30T02:20:10.904Z,97965.21
2022-09-30T02:21:19.810Z,97965.35
2022-09-30T02:22:44.955Z,97964.77
2022-09-30T02:23:50.533Z,97966.39
2022-09-30T02:25:01.607Z,97967.14
2022-09-30T02:26:13.283Z,97969.68
2022-09-30T02:27:21.508Z,97967.53
2022-09-30T02:28:29.234Z,97966.73
2022-09-30T02:29:42.159Z,97967.58
2022-09-30T02:30:52.434Z,97966.17
2022-09-30T02:32:03.801Z,97966.71
2022-09-30T02:33:16.766Z,97968.58
2022-09-30T02:34:41.837Z,97968.90
2022-09-30T02:35:59.376Z,97971.70
2022-09-30T02:37:08.717Z,97967.84
2022-09-30T02:38:23.802Z,97964.83
2022-09-30T02:39:34.232Z,97957.91
2022-09-30T02:40:41.250Z,97950.55
2022-09-30T02:41:53.123Z,97953.48
2022-09-30T02:42:55.742Z,97959.54
2022-09-30T02:44:00.451Z,97962.02
2022-09-30T02:45:09.056Z,97964.65
2022-09-30T02:46:29.044Z,97968.73
2022-09-30T02:47:52.632Z,97970.06
2022-09-30T02:49:18.259Z,97969.91
2022-09-30T02:50:36.637Z,97970.99
2022-09-30T02:52:29.178Z,97974.70
2022-09-30T02:53:43.752Z,97975.25
2022-09-30T02:55:27.505Z,97973.39
2022-09-30T02:56:59.997Z,97970.53
2022-09-30T02:58:19.191Z,97972.31
2022-09-30T02:59:23.596Z,97970.84
2022-09-30T03:00:26.256Z,97972.14
2022-09-30T03:01:27.949Z,97970.41
2022-09-30T03:02:29.732Z,97970.15
2022-09-30T03:03:42.523Z,97969.13
2022-09-30T03:04:46.812Z,97972.01
2022-09-30T03:05:52.004Z,97974.70
2022-09-30T03:06:55.365Z,97971.55
2022-09-30T03:07:57.778Z,97972.00
2022-09-30T03:08:59.496Z,97974.33
2022-09-30T03:10:01.284Z,97974.11
2022-09-30T03:11:04.627Z,97973.73
2022-09-30T03:12:21.745Z,97975.33
2022-09-30T03:13:48.335Z,97978.19
2022-09-30T03:15:13.062Z,97977.16
2022-09-30T03:16:45.169Z,97977.38
2022-09-30T03:18:15.364Z,97978.06
2022-09-30T03:19:42.404Z,97982.00
2022-09-30T03:20:54.218Z,97985.88
2022-09-30T03:22:12.194Z,97985.71
2022-09-30T03:23:16.757Z,97986.29
2022-09-30T03:24:39.289Z,97987.94
2022-09-30T03:26:14.878Z,97989.68
2022-09-30T03:27:46.354Z,97988.63
2022-09-30T03:29:07.360Z,97988.18
2022-09-30T03:30:24.304Z,97987.37
2022-09-30T03:31:35.318Z,97982.32
2022-09-30T03:33:08.311Z,97980.54
2022-09-30T03:34:27.700Z,97976.45
2022-09-30T03:35:50.310Z,97982.30
2022-09-30T03:37:08.747Z,97985.56
2022-09-30T03:38:24.483Z,97982.98
2022-09-30T03:39:34.164Z,97981.05
2022-09-30T03:41:01.071Z,97986.26
2022-09-30T03:42:22.002Z,97980.85
2022-09-30T03:43:43.874Z,97981.06
2022-09-30T03:45:00.464Z,97979.21
2022-09-30T03:46:33.866Z,97981.39
2022-09-30T03:47:42.701Z,97978.79
2022-09-30T03:48:50.650Z,97980.47
2022-09-30T03:50:00.419Z,97982.65
2022-09-30T03:51:04.170Z,97985.24
2022-09-30T03:52:10.192Z,97984.41
2022-09-30T03:53:13.721Z,97985.39
2022-09-30T03:54:16.562Z,97986.65
2022-09-30T03:55:19.632Z,97986.70
2022-09-30T03:56:30.286Z,97993.88
2022-09-30T03:57:31.936Z,97998.39
2022-09-30T03:58:34.849Z,98002.12
2022-09-30T03:59:36.653Z,98004.38
2022-09-30T04:00:46.324Z,98007.42
2022-09-30T04:01:48.007Z,98012.13
2022-09-30T04:02:50.690Z,98009.40
2022-09-30T04:03:54.878Z,98015.25
2022-09-30T04:04:56.634Z,98016.59
2022-09-30T04:05:58.310Z,98020.84
2022-09-30T04:07:00.357Z,98019.60
2022-09-30T04:08:02.052Z,98022.39
2022-09-30T04:09:04.026Z,98021.42
2022-09-30T04:10:06.116Z,98020.79
2022-09-30T04:11:07.953Z,98016.77
2022-09-30T04:12:10.084Z,98016.92
2022-09-30T04:13:12.832Z,98018.39
2022-09-30T04:14:14.752Z,98014.47
2022-09-30T04:15:16.420Z,98014.73
2022-09-30T04:16:18.439Z,98014.99
2022-09-30T04:17:20.244Z,98014.89
2022-09-30T04:18:21.890Z,98015.30
2022-09-30T04:19:23.853Z,98021.59
2022-09-30T04:20:26.051Z,98022.83
2022-09-30T04:21:30.977Z,98026.48
2022-09-30T04:22:32.682Z,98025.57
2022-09-30T04:23:39.586Z,98031.01
2022-09-30T04:24:41.757Z,98035.80
2022-09-30T04:25:43.550Z,98035.23
2022-09-30T04:26:45.204Z,98037.55
2022-09-30T04:27:47.130Z,98037.19
2022-09-30T04:28:49.008Z,98041.77
2022-09-30T04:29:50.673Z,98041.67
2022-09-30T04:30:52.465Z,98043.45
2022-09-30T04:31:54.509Z,98047.02
2022-09-30T04:32:56.208Z,98047.46
2022-09-30T04:33:57.839Z,98044.63
2022-09-30T04:34:59.495Z,98043.45
2022-09-30T04:36:01.860Z,98040.06
2022-09-30T04:37:07.339Z,98039.11
2022-09-30T04:38:11.750Z,98041.53
2022-09-30T04:39:13.415Z,98038.59
2022-09-30T04:40:16.466Z,98040.41
2022-09-30T04:41:18.242Z,98039.09
2022-09-30T04:42:19.940Z,98037.95
2022-09-30T04:43:23.574Z,98037.33
2022-09-30T04:44:25.220Z,98038.71
2022-09-30T04:45:27.124Z,98033.63
2022-09-30T04:46:28.840Z,98039.21
2022-09-30T04:47:31.324Z,98040.73
2022-09-30T04:48:32.957Z,98040.69
2022-09-30T04:49:34.608Z,98039.50
2022-09-30T04:50:36.272Z,98034.85
2022-09-30T04:51:38.492Z,98035.05
2022-09-30T04:52:43.247Z,98031.02
2022-09-30T04:53:46.312Z,98030.49
2022-09-30T04:54:48.141Z,98032.05
2022-09-30T04:55:49.952Z,98033.50
2022-09-30T04:56:51.608Z,98035.27
2022-09-30T04:57:53.238Z,98035.86
2022-09-30T04:58:54.878Z,98036.15
2022-09-30T04:59:56.533Z,98034.86
2022-09-30T05:01:10.177Z,98033.15
2022-09-30T05:02:13.729Z,98031.05
2022-09-30T05:03:15.460Z,98030.02
2022-09-30T05:04:17.090Z,98032.27
2022-09-30T05:05:20.088Z,98029.96
2022-09-30T05:06:21.771Z,98034.65
2022-09-30T05:07:23.541Z,98034.48
2022-09-30T05:08:25.251Z,98035.35
2022-09-30T05:09:26.960Z,98034.39
2022-09-30T05:10:30.144Z,98030.89
2022-09-30T05:11:31.904Z,98030.35
2022-09-30T05:12:34.399Z,98033.15
2022-09-30T05:13:40.146Z,98025.41
2022-09-30T05:14:41.838Z,98030.04
2022-09-30T05:15:43.495Z,98032.98
2022-09-30T05:16:45.117Z,98032.19
2022-09-30T05:17:49.648Z,98032.46
2022-09-30T05:18:51.278Z,98035.85
2022-09-30T05:19:52.934Z,98036.70
2022-09-30T05:20:57.378Z,98038.86
2022-09-30T05:21:59.024Z,98037.40
2022-09-30T05:23:00.722Z,98034.89
2022-09-30T05:24:02.858Z,98040.48
2022-09-30T05:25:05.043Z,98038.86
2022-09-30T05:26:11.716Z,98043.92
2022-09-30T05:27:14.828Z,98045.05
2022-09-30T05:28:16.659Z,98049.62
2022-09-30T05:29:18.337Z,98056.83
2022-09-30T05:30:19.983Z,98062.73
2022-09-30T05:31:21.771Z,98062.80
2022-09-30T05:32:24.689Z,98061.98
2022-09-30T05:33:29.673Z,98064.46
2022-09-30T05:34:31.541Z,98065.58
2022-09-30T05:35:33.177Z,98067.04
2022-09-30T05:36:34.825Z,98066.03
2022-09-30T05:37:36.479Z,98067.95
2022-09-30T05:38:38.126Z,98068.33
2022-09-30T05:39:39.872Z,98066.98
2022-09-30T05:40:41.585Z,98066.77
2022-09-30T05:41:43.392Z,98071.23
2022-09-30T05:42:47.081Z,98071.02
2022-09-30T05:43:49.702Z,98069.77
2022-09-30T05:44:51.785Z,98071.83
2022-09-30T05:45:57.433Z,98074.95
2022-09-30T05:46:59.683Z,98074.67
2022-09-30T05:48:02.198Z,98076.98
2022-09-30T05:49:03.900Z,98073.54
2022-09-30T05:50:06.240Z,98074.55
2022-09-30T05:51:09.440Z,98078.00
2022-09-30T05:52:11.790Z,98077.57
2022-09-30T05:53:13.452Z,98078.86
2022-09-30T05:54:15.124Z,98074.59
2022-09-30T05:55:18.993Z,98077.12
2022-09-30T05:56:20.702Z,98074.27
2022-09-30T05:57:22.369Z,98070.77
2022-09-30T05:58:24.608Z,98070.65
2022-09-30T05:59:26.306Z,98071.30
2022-09-30T06:00:27.940Z,98071.19
2022-09-30T06:01:29.716Z,98073.88
2022-09-30T06:02:31.502Z,98074.94
2022-09-30T06:03:33.308Z,98076.23
2022-09-30T06:04:34.952Z,98074.55
2022-09-30T06:05:37.611Z,98070.23
2022-09-30T06:06:39.233Z,98071.52
2022-09-30T06:07:40.870Z,98074.48
2022-09-30T06:08:43.781Z,98081.21
2022-09-30T06:09:46.399Z,98079.02
2022-09-30T06:10:48.121Z,98080.21
2022-09-30T06:11:49.766Z,98084.77
2022-09-30T06:12:52.207Z,98083.77
2022-09-30T06:13:54.047Z,98093.94
2022-09-30T06:14:55.956Z,98094.85
2022-09-30T06:16:00.165Z,98095.91
2022-09-30T06:17:02.147Z,98091.27
2022-09-30T06:18:03.912Z,98097.08
2022-09-30T06:19:06.997Z,98097.08
2022-09-30T06:20:10.203Z,98094.16
2022-09-30T06:21:15.348Z,98097.23
2022-09-30T06:22:18.100Z,98095.61
2022-09-30T06:23:20.347Z,98098.95
2022-09-30T06:24:21.980Z,98100.66
2022-09-30T06:25:23.689Z,98102.17
2022-09-30T06:26:25.376Z,98107.12
2022-09-30T06:27:28.218Z,98111.26
2022-09-30T06:28:30.118Z,98111.64
2022-09-30T06:29:31.792Z,98111.26
2022-09-30T06:30:35.374Z,98114.64
2022-09-30T06:31:37.664Z,98113.93
2022-09-30T06:32:39.408Z,98115.09
2022-09-30T06:33:42.508Z,98115.90
2022-09-30T06:34:44.799Z,98116.91
2022-09-30T06:35:47.535Z,98114.85
2022-09-30T06:36:49.356Z,98113.81
2022-09-30T06:37:52.346Z,98115.00
2022-09-30T06:38:54.394Z,98113.70
2022-09-30T06:39:56.568Z,98116.96
2022-09-30T06:41:01.527Z,98116.86
2022-09-30T06:42:03.679Z,98118.87
2022-09-30T06:43:07.316Z,98122.39
2022-09-30T06:44:09.792Z,98121.31
2022-09-30T06:45:23.208Z,98122.11
2022-09-30T06:46:31.428Z,98117.41
2022-09-30T06:47:33.569Z,98117.94
2022-09-30T06:48:38.536Z,98119.05
2022-09-30T06:49:49.294Z,98119.73
2022-09-30T06:51:01.226Z,98123.33
2022-09-30T06:52:04.036Z,98126.60
2022-09-30T06:53:08.444Z,98122.97
2022-09-30T06:54:10.577Z,98125.60
2022-09-30T06:55:12.221Z,98125.34
2022-09-30T06:56:14.970Z,98125.59
2022-09-30T06:57:22.416Z,98122.95
2022-09-30T06:58:24.567Z,98120.18
2022-09-30T06:59:27.178Z,98123.09
2022-09-30T07:00:29.101Z,98126.23
2022-09-30T07:01:30.954Z,98126.70
2022-09-30T07:02:34.441Z,98127.48
2022-09-30T07:03:36.234Z,98125.23
2022-09-30T07:04:37.880Z,98126.02
2022-09-30T07:05:39.516Z,98130.67
2022-09-30T07:06:42.296Z,98136.69
2022-09-30T07:07:44.102Z,98134.55
2022-09-30T07:08:45.755Z,98138.14
2022-09-30T07:09:47.709Z,98140.34
2022-09-30T07:10:49.387Z,98143.55
2022-09-30T07:11:51.265Z,98146.55
2022-09-30T07:12:54.204Z,98143.66
2022-09-30T07:13:55.914Z,98143.31
2022-09-30T07:14:58.645Z,98143.09
2022-09-30T07:16:00.545Z,98144.22
2022-09-30T07:17:04.240Z,98142.98
2022-09-30T07:18:06.759Z,98141.90
2022-09-30T07:19:10.241Z,98145.16
2022-09-30T07:20:11.952Z,98144.75
2022-09-30T07:21:16.247Z,98145.48
2022-09-30T07:22:32.252Z,98149.63
2022-09-30T07:23:33.881Z,98150.44
2022-09-30T07:24:35.516Z,98157.75
2022-09-30T07:25:37.158Z,98156.64
2022-09-30T07:26:40.209Z,98160.47
2022-09-30T07:27:41.978Z,98160.09
2022-09-30T07:28:45.127Z,98162.27
2022-09-30T07:31:32.081Z,98160.15
2022-09-30T07:32:34.727Z,98164.38
2022-09-30T07:33:36.478Z,98164.09
2022-09-30T07:34:43.116Z,98169.55
2022-09-30T07:35:56.313Z,98174.45
2022-09-30T07:36:57.981Z,98177.49
2022-09-30T07:38:00.661Z,98180.23
2022-09-30T07:39:05.816Z,98180.17
2022-09-30T07:40:09.518Z,98181.70
2022-09-30T07:41:15.038Z,98180.06
2022-09-30T07:42:22.949Z,98182.78
2022-09-30T07:43:34.962Z,98180.64
2022-09-30T07:44:41.860Z,98182.27
2022-09-30T07:45:43.650Z,98181.21
2022-09-30T07:46:45.672Z,98178.96
2022-09-30T07:47:52.548Z,98179.82
2022-09-30T07:49:00.240Z,98181.86
2022-09-30T07:50:02.067Z,98184.00
2022-09-30T07:51:03.912Z,98184.52
2022-09-30T07:52:05.727Z,98186.44
2022-09-30T07:53:07.380Z,98187.52
2022-09-30T07:54:14.438Z,98187.01
2022-09-30T07:55:16.113Z,98187.45
2022-09-30T07:56:19.184Z,98185.13
2022-09-30T07:57:21.627Z,98183.28
2022-09-30T07:58:23.744Z,98188.41
2022-09-30T07:59:27.476Z,98188.95
2022-09-30T08:00:42.221Z,98189.27
2022-09-30T08:01:46.034Z,98189.51
2022-09-30T08:02:48.267Z,98189.79
2022-09-30T08:03:54.146Z,98187.77
2022-09-30T08:04:55.801Z,98186.42
2022-09-30T08:06:04.078Z,98186.21
2022-09-30T08:07:05.830Z,98184.67
2022-09-30T08:08:07.600Z,98182.62
2022-09-30T08:09:09.740Z,98180.09
2022-09-30T08:10:11.516Z,98179.40
2022-09-30T08:11:14.846Z,98181.77
2022-09-30T08:12:16.485Z,98181.16
2022-09-30T08:13:19.948Z,98185.78
2022-09-30T08:14:25.936Z,98187.09
2022-09-30T08:15:28.006Z,98183.55
2022-09-30T08:16:29.741Z,98184.14
2022-09-30T08:17:31.497Z,98188.54
2022-09-30T08:18:33.225Z,98186.56
2022-09-30T08:19:35.288Z,98191.46
2022-09-30T08:20:36.947Z,98189.13
2022-09-30T08:21:38.597Z,98193.45
2022-09-30T08:22:40.198Z,98195.73
2022-09-30T08:23:41.827Z,98195.42
2022-09-30T08:24:43.424Z,98196.80
2022-09-30T08:25:45.182Z,98197.08
2022-09-30T08:26:47.234Z,98198.61
2022-09-30T08:27:49.379Z,98200.80
2022-09-30T08:28:51.336Z,98202.90
2022-09-30T08:29:55.444Z,98202.86
2022-09-30T08:31:10.647Z,98201.35
2022-09-30T08:32:12.523Z,98201.80
2022-09-30T08:33:14.169Z,98203.95
2022-09-30T08:34:15.893Z,98203.83
2022-09-30T08:35:17.671Z,98202.68
2022-09-30T08:36:23.901Z,98201.89
2022-09-30T08:37:25.549Z,98202.50
2022-09-30T08:38:27.207Z,98200.23
2022-09-30T08:39:28.925Z,98199.06
2022-09-30T08:40:41.513Z,98200.89
2022-09-30T08:42:39.432Z,98202.25
2022-09-30T08:44:19.606Z,98201.02
2022-09-30T08:45:37.377Z,98206.15
2022-09-30T08:47:14.515Z,98203.26
2022-09-30T08:48:35.043Z,98210.15
2022-09-30T08:49:56.514Z,98208.45
2022-09-30T08:51:01.881Z,98210.63
2022-09-30T08:52:55.710Z,98211.86
2022-09-30T08:54:02.748Z,98213.30
2022-09-30T08:55:07.112Z,98209.63
2022-09-30T08:56:20.722Z,98208.85
2022-09-30T08:57:25.144Z,98209.76
2022-09-30T08:58:31.259Z,98207.96
2022-09-30T08:59:45.683Z,98208.17
2022-09-30T09:00:54.891Z,98209.08
2022-09-30T09:02:18.041Z,98209.05
2022-09-30T09:03:23.042Z,98214.11
2022-09-30T09:04:24.976Z,98214.64
2022-09-30T09:05:40.064Z,98213.14
2022-09-30T09:06:47.539Z,98213.44
2022-09-30T09:08:06.457Z,98214.17
2022-09-30T09:09:35.354Z,98213.69
2022-09-30T09:10:48.408Z,98213.83
2022-09-30T09:12:11.354Z,98213.85
2022-09-30T09:13:28.633Z,98215.89
2022-09-30T09:14:32.707Z,98217.42
2022-09-30T09:16:07.540Z,98219.21
2022-09-30T09:18:04.303Z,98217.51
2022-09-30T09:19:15.975Z,98219.46
2022-09-30T09:20:22.419Z,98219.48
2022-09-30T09:21:48.627Z,98220.33
2022-09-30T09:22:52.265Z,98215.67
2022-09-30T09:24:00.733Z,98214.92
2022-09-30T09:25:03.834Z,98212.45
2022-09-30T09:26:06.076Z,98213.95
2022-09-30T09:27:20.183Z,98215.59
2022-09-30T09:28:51.789Z,98217.90
2022-09-30T09:30:01.823Z,98220.02
2022-09-30T09:31:04.955Z,98220.95
2022-09-30T09:32:14.551Z,98220.55
2022-09-30T09:33:23.089Z,98223.20
2022-09-30T09:34:26.738Z,98223.19
2022-09-30T09:36:05.362Z,98220.42
2022-09-30T09:37:46.442Z,98218.63
2022-09-30T09:39:11.399Z,98222.87
2022-09-30T09:40:25.249Z,98220.34
2022-09-30T09:41:51.582Z,98219.33
2022-09-30T09:43:12.315Z,98215.88
2022-09-30T09:44:23.407Z,98218.96
2022-09-30T09:45:54.487Z,98221.61
2022-09-30T09:47:05.211Z,98218.52
2022-09-30T09:48:12.785Z,98215.95
2022-09-30T09:49:17.026Z,98217.33
2022-09-30T09:50:35.158Z,98220.33
2022-09-30T09:51:47.211Z,98217.27
2022-09-30T09:53:13.441Z,98218.71
2022-09-30T09:54:21.632Z,98217.55
2022-09-30T09:55:24.066Z,98218.91
2022-09-30T09:56:32.481Z,98220.65
2022-09-30T09:57:34.325Z,98220.16
2022-09-30T09:58:35.946Z,98223.56
2022-09-30T09:59:54.328Z,98221.64
2022-09-30T10:01:32.662Z,98219.60
2022-09-30T10:02:34.554Z,98218.13
2022-09-30T10:03:36.227Z,98217.80
2022-09-30T10:04:50.968Z,98214.31
2022-09-30T10:06:03.956Z,98216.52
2022-09-30T10:07:15.314Z,98216.27
2022-09-30T10:08:22.814Z,98214.14
2022-09-30T10:09:37.423Z,98216.23
2022-09-30T10:10:59.238Z,98217.04
2022-09-30T10:12:06.875Z,98217.41
2022-09-30T10:13:21.560Z,98217.29
2022-09-30T10:14:23.292Z,98219.98
2022-09-30T10:15:26.480Z,98220.81
2022-09-30T10:16:35.359Z,98219.56
2022-09-30T10:17:38.364Z,98222.30
2022-09-30T10:18:40.876Z,98222.80
2022-09-30T10:19:51.803Z,98222.39
2022-09-30T10:21:00.390Z,98222.66
2022-09-30T10:22:07.879Z,98224.04
2022-09-30T10:23:20.359Z,98225.48
2022-09-30T10:24:31.596Z,98230.00
2022-09-30T10:25:33.291Z,98229.34
2022-09-30T10:26:47.751Z,98229.58
2022-09-30T10:28:00.411Z,98227.78
2022-09-30T10:29:06.537Z,98227.88
2022-09-30T10:30:08.791Z,98230.89
2022-09-30T10:31:29.361Z,98230.45
2022-09-30T10:32:32.822Z,98228.61
2022-09-30T10:33:43.972Z,98231.02
2022-09-30T10:34:46.055Z,98234.77
2022-09-30T10:35:59.169Z,98236.43
2022-09-30T10:37:17.217Z,98234.40
2022-09-30T10:38:19.173Z,98241.47
2022-09-30T10:39:32.517Z,98233.93
2022-09-30T10:40:34.320Z,98237.60
2022-09-30T10:41:38.615Z,98241.29
2022-09-30T10:42:46.089Z,98242.09
2022-09-30T10:43:53.246Z,98239.16
2022-09-30T10:45:19.930Z,98241.20
2022-09-30T10:46:28.759Z,98238.61
2022-09-30T10:47:36.430Z,98238.16
2022-09-30T10:48:41.365Z,98238.63
2022-09-30T10:49:53.367Z,98235.73
2022-09-30T10:50:57.270Z,98235.53
2022-09-30T10:52:01.384Z,98235.40
2022-09-30T10:53:25.755Z,98236.77
2022-09-30T10:54:49.911Z,98238.05
2022-09-30T10:55:54.138Z,98238.31
2022-09-30T10:56:55.751Z,98240.98
2022-09-30T10:58:21.331Z,98242.77
2022-09-30T10:59:35.230Z,98240.79
2022-09-30T11:00:37.554Z,98239.29
2022-09-30T11:01:52.612Z,98238.85
2022-09-30T11:03:20.589Z,98239.02
2022-09-30T11:04:26.268Z,98239.46
2022-09-30T11:05:34.268Z,98241.50
2022-09-30T11:06:40.610Z,98241.34
2022-09-30T11:07:54.715Z,98237.08
2022-09-30T11:09:12.760Z,98238.95
2022-09-30T11:10:32.965Z,98237.55
2022-09-30T11:11:44.136Z,98239.10
2022-09-30T11:13:00.094Z,98236.85
2022-09-30T11:14:39.379Z,98239.94
2022-09-30T11:16:01.698Z,98239.11
2022-09-30T11:17:18.043Z,98240.98
2022-09-30T11:18:35.004Z,98244.70
2022-09-30T11:19:43.119Z,98240.85
2022-09-30T11:21:10.591Z,98242.16
2022-09-30T11:22:34.008Z,98243.20
2022-09-30T11:23:45.458Z,98243.70
2022-09-30T11:24:52.845Z,98243.92
2022-09-30T11:26:12.482Z,98244.52
2022-09-30T11:27:20.094Z,98243.89
2022-09-30T11:28:32.542Z,98243.45
2022-09-30T11:29:40.247Z,98240.78
2022-09-30T11:30:58.141Z,98240.20
2022-09-30T11:32:23.201Z,98239.23
2022-09-30T11:33:43.608Z,98239.48
2022-09-30T11:34:59.695Z,98239.09
2022-09-30T11:36:11.714Z,98239.53
2022-09-30T11:37:33.868Z,98242.32
2022-09-30T11:39:14.239Z,98240.01
2022-09-30T11:40:40.526Z,98244.12
2022-09-30T11:42:11.615Z,98244.65
2022-09-30T11:43:21.608Z,98245.96
2022-09-30T11:44:36.117Z,98248.23
2022-09-30T11:46:07.984Z,98248.15
2022-09-30T11:47:23.314Z,98245.44
2022-09-30T11:48:46.430Z,98246.25
2022-09-30T11:50:00.166Z,98250.02
2022-09-30T11:51:11.287Z,98248.94
2022-09-30T11:52:46.617Z,98244.02
2022-09-30T11:54:02.063Z,98249.80
2022-09-30T11:55:33.042Z,98246.52
2022-09-30T11:56:46.367Z,98248.00
2022-09-30T11:58:22.461Z,98246.45
2022-09-30T11:59:42.070Z,98242.88
2022-09-30T12:00:52.844Z,98243.09
2022-09-30T12:02:01.205Z,98244.19
2022-09-30T12:03:21.704Z,98243.86
2022-09-30T12:04:42.888Z,98247.66
2022-09-30T12:05:54.624Z,98249.52
2022-09-30T12:07:06.986Z,98247.88
2022-09-30T12:08:21.099Z,98249.42
2022-09-30T12:09:27.984Z,98248.66
2022-09-30T12:10:37.387Z,98250.61
2022-09-30T12:11:49.683Z,98246.11
2022-09-30T12:13:20.599Z,98245.39
2022-09-30T12:14:42.454Z,98246.45
2022-09-30T12:15:48.446Z,98244.35
2022-09-30T12:16:51.642Z,98244.88
2022-09-30T12:18:05.279Z,98247.18
2022-09-30T12:19:35.165Z,98249.95
2022-09-30T12:20:51.613Z,98245.65
2022-09-30T12:22:00.495Z,98244.80
2022-09-30T12:23:18.256Z,98247.80
2022-09-30T12:24:29.037Z,98246.24
2022-09-30T12:25:43.930Z,98243.63
2022-09-30T12:26:47.266Z,98242.38
2022-09-30T12:28:24.876Z,98241.91
2022-09-30T12:29:56.494Z,98242.94
2022-09-30T12:31:23.809Z,98242.54
2022-09-30T12:33:00.102Z,98241.30
2022-09-30T12:34:39.067Z,98241.44
2022-09-30T12:35:56.390Z,98243.00
2022-09-30T12:37:10.376Z,98242.07
2022-09-30T12:38:46.179Z,98244.42
2022-09-30T12:40:22.527Z,98243.52
2022-09-30T12:41:46.032Z,98243.80
2022-09-30T12:43:06.306Z,98246.83
2022-09-30T12:44:42.095Z,98243.96
2022-09-30T12:46:24.661Z,98245.96
2022-09-30T12:47:31.174Z,98243.44
2022-09-30T12:48:44.327Z,98244.35
2022-09-30T12:49:49.434Z,98244.70
2022-09-30T12:50:58.004Z,98243.98
2022-09-30T12:52:07.122Z,98243.16
2022-09-30T12:53:17.837Z,98240.27
2022-09-30T12:54:33.386Z,98243.33
2022-09-30T12:55:43.034Z,98241.17
2022-09-30T12:56:53.572Z,98235.78
2022-09-30T12:57:57.019Z,98239.05
2022-09-30T12:59:00.636Z,98233.59
2022-09-30T13:00:08.460Z,98235.96
2022-09-30T13:01:27.280Z,98236.02
2022-09-30T13:02:40.158Z,98236.45
2022-09-30T13:03:49.125Z,98236.52
2022-09-30T13:04:50.858Z,98238.62
2022-09-30T13:06:06.435Z,98234.23
2022-09-30T13:07:15.932Z,98233.23
2022-09-30T13:08:25.046Z,98231.70
2022-09-30T13:09:33.901Z,98234.73
2022-09-30T13:10:38.235Z,98230.66
2022-09-30T13:11:41.853Z,98235.68
2022-09-30T13:12:46.786Z,98233.60
2022-09-30T13:14:03.746Z,98236.53
2022-09-30T13:15:42.370Z,98237.98
2022-09-30T13:17:08.757Z,98239.29
2022-09-30T13:18:26.771Z,98242.99
2022-09-30T13:19:36.363Z,98243.38
2022-09-30T13:20:56.364Z,98242.09
2022-09-30T13:22:29.719Z,98245.16
2022-09-30T13:23:48.077Z,98243.83
2022-09-30T13:25:04.726Z,98243.09
2022-09-30T13:26:41.546Z,98240.70
2022-09-30T13:28:14.433Z,98242.50
2022-09-30T13:29:19.697Z,98241.88
2022-09-30T13:30:21.447Z,98240.55
2022-09-30T13:31:26.153Z,98238.55
2022-09-30T13:32:39.089Z,98240.83
2022-09-30T13:34:06.853Z,98240.59
2022-09-30T13:35:33.356Z,98239.20
2022-09-30T13:36:44.290Z,98239.66
2022-09-30T13:38:28.638Z,98241.32
2022-09-30T13:39:54.475Z,98237.42
2022-09-30T13:41:14.354Z,98240.67
2022-09-30T13:42:29.870Z,98244.20
2022-09-30T13:43:56.487Z,98246.30